Time;durP1;ratioP1;P1;durP2;ratioP2;P2;SDS_P1;SDS_P2;PMS_P1;PMS_P2;Temp;Humidity;BMP_temperature;BMP_pressure;BME280_temperature;BME280_humidity;BME280_pressure;Samples;Min_cycle;Max_cycle;Signal;HPM_P1;HPM_P2
2021/07/04 00:00:32;;;;;;;26.33;13.93;;;;;;;16.00;100.00;101208.75;5239977;28;20021;-86
2021/07/04 00:03:04;;;;;;;22.05;13.57;;;;;;;15.99;100.00;101207.06;5243638;28;20029;-86
2021/07/04 00:05:36;;;;;;;30.75;14.85;;;;;;;15.95;100.00;101208.47;5224733;28;20070;-87
2021/07/04 00:08:09;;;;;;;21.88;12.45;;;;;;;15.92;100.00;101206.19;5238144;28;20016;-87
2021/07/04 00:10:51;;;;;;;23.92;12.40;;;;;;;15.88;100.00;101213.00;5235291;28;20630;-89
2021/07/04 00:13:22;;;;;;;23.65;13.35;;;;;;;15.89;100.00;101211.97;5238608;28;20060;-87
2021/07/04 00:15:53;;;;;;;28.08;15.57;;;;;;;15.91;100.00;101197.19;5237966;28;20512;-87
2021/07/04 00:18:27;;;;;;;24.70;13.05;;;;;;;15.92;100.00;101184.53;5232743;28;20034;-87
2021/07/04 00:20:59;;;;;;;28.83;14.85;;;;;;;15.93;100.00;101188.91;5230294;28;20025;-86
2021/07/04 00:23:30;;;;;;;31.45;15.98;;;;;;;15.93;100.00;101183.50;5235012;28;20033;-86
2021/07/04 00:26:02;;;;;;;28.45;14.18;;;;;;;15.96;100.00;101174.97;5228150;28;20430;-86
2021/07/04 00:28:32;;;;;;;24.27;12.95;;;;;;;15.96;100.00;101170.41;5233583;28;20033;-87
2021/07/04 00:31:03;;;;;;;32.00;14.88;;;;;;;15.93;100.00;101172.69;5229556;28;20109;-87
2021/07/04 00:33:34;;;;;;;34.35;14.15;;;;;;;15.89;100.00;101171.38;5241327;28;20028;-89
2021/07/04 00:36:05;;;;;;;22.70;12.32;;;;;;;15.79;100.00;101177.94;5244830;28;20111;-87
2021/07/04 00:38:36;;;;;;;31.48;12.57;;;;;;;15.67;100.00;101167.84;5244549;28;20032;-87
2021/07/04 00:41:07;;;;;;;18.92;10.98;;;;;;;15.59;100.00;101181.44;5244477;28;20020;-87
2021/07/04 00:43:37;;;;;;;26.30;13.52;;;;;;;15.50;100.00;101172.59;5244933;28;20024;-88
2021/07/04 00:46:08;;;;;;;31.15;16.23;;;;;;;15.51;100.00;101171.56;5244588;28;20028;-89
2021/07/04 00:48:38;;;;;;;29.80;15.88;;;;;;;15.53;100.00;101174.94;5244410;28;20017;-87
2021/07/04 00:51:09;;;;;;;33.03;16.83;;;;;;;15.53;100.00;101173.06;5243672;28;20871;-86
2021/07/04 00:53:40;;;;;;;32.28;17.17;;;;;;;15.60;100.00;101181.22;5243423;28;20032;-86
2021/07/04 00:56:10;;;;;;;37.92;17.58;;;;;;;15.64;100.00;101179.84;5235439;28;20100;-88
2021/07/04 00:58:41;;;;;;;32.63;16.75;;;;;;;15.70;100.00;101179.09;5238331;28;20032;-87
2021/07/04 01:01:11;;;;;;;35.90;17.50;;;;;;;15.74;100.00;101182.25;5223176;28;20033;-86
2021/07/04 01:03:42;;;;;;;31.30;16.90;;;;;;;15.78;100.00;101178.16;5244706;28;20450;-87
2021/07/04 01:06:12;;;;;;;29.98;14.30;;;;;;;15.83;100.00;101174.88;5237677;28;20020;-88
2021/07/04 01:08:43;;;;;;;27.42;15.18;;;;;;;15.87;100.00;101165.34;5232595;28;20063;-87
2021/07/04 01:11:33;;;;;;;37.17;18.15;;;;;;;15.91;100.00;101161.19;5243993;28;20027;-87
2021/07/04 01:14:04;;;;;;;37.08;17.65;;;;;;;15.93;100.00;101162.69;5231214;28;20075;-87
2021/07/04 01:16:45;;;;;;;32.47;17.38;;;;;;;15.93;100.00;101162.69;5223399;28;20484;-88
2021/07/04 01:19:17;;;;;;;36.42;17.38;;;;;;;15.96;100.00;101174.97;5224814;28;20028;-87
2021/07/04 01:21:49;;;;;;;28.80;16.58;;;;;;;15.94;100.00;101166.22;5243731;28;20084;-87
2021/07/04 01:24:20;;;;;;;32.03;17.88;;;;;;;15.98;100.00;101167.53;5243347;28;20020;-86
2021/07/04 01:26:50;;;;;;;37.42;16.70;;;;;;;15.97;100.00;101169.38;5243504;28;20354;-86
2021/07/04 01:29:21;;;;;;;30.58;15.85;;;;;;;15.97;100.00;101169.38;5243455;28;20032;-87
2021/07/04 01:31:52;;;;;;;32.72;16.80;;;;;;;15.97;100.00;101165.84;5243495;28;20055;-86
2021/07/04 01:34:22;;;;;;;36.88;18.15;;;;;;;15.94;100.00;101163.53;5233458;28;20084;-87
2021/07/04 01:36:53;;;;;;;37.78;17.75;;;;;;;15.92;100.00;101165.59;5243395;28;20108;-86
2021/07/04 01:39:24;;;;;;;34.00;17.30;;;;;;;15.88;100.00;101167.84;5243211;28;20098;-86
2021/07/04 01:41:55;;;;;;;40.08;19.02;;;;;;;15.85;100.00;101165.50;5243334;28;20146;-86
2021/07/04 01:44:33;;;;;;;32.03;17.15;;;;;;;15.80;100.00;101155.25;5243857;28;20078;-87
2021/07/04 01:47:03;;;;;;;33.55;17.05;;;;;;;15.77;100.00;101166.50;5243157;28;20033;-87
2021/07/04 01:49:34;;;;;;;36.42;19.15;;;;;;;15.77;100.00;101177.31;5242858;28;20035;-88
2021/07/04 01:52:05;;;;;;;38.53;19.50;;;;;;;15.80;100.00;101168.78;5243114;28;20021;-86
2021/07/04 01:54:37;;;;;;;51.97;20.95;;;;;;;15.83;100.00;101167.59;5234920;28;20027;-87
2021/07/04 01:57:11;;;;;;;46.00;21.50;;;;;;;15.85;100.00;101161.97;5242046;28;20384;-86
2021/07/04 01:59:44;;;;;;;48.97;22.48;;;;;;;15.88;100.00;101162.44;5233550;28;20025;-86
2021/07/04 02:02:15;;;;;;;58.05;24.52;;;;;;;15.90;100.00;101156.81;5243222;28;20178;-86
2021/07/04 02:04:49;;;;;;;65.60;24.85;;;;;;;15.91;100.00;101159.31;5226943;28;20421;-86
2021/07/04 02:07:20;;;;;;;75.38;27.15;;;;;;;15.94;100.00;101158.09;5232809;28;20111;-89
2021/07/04 02:09:52;;;;;;;117.95;31.42;;;;;;;15.97;100.00;101163.16;5224772;28;20553;-87
2021/07/04 02:12:23;;;;;;;118.22;30.52;;;;;;;15.99;100.00;101161.06;5234166;28;20634;-87
2021/07/04 02:14:54;;;;;;;199.15;35.30;;;;;;;16.01;100.00;101159.84;5237260;28;20021;-86
2021/07/04 02:17:24;;;;;;;139.95;33.28;;;;;;;16.00;100.00;101154.63;5235762;28;20024;-87
2021/07/04 02:19:55;;;;;;;112.60;33.25;;;;;;;16.02;100.00;101153.41;5222035;28;20033;-86
2021/07/04 02:22:25;;;;;;;146.75;32.67;;;;;;;16.04;100.00;101145.09;5235489;28;20028;-87
2021/07/04 02:24:56;;;;;;;165.65;33.58;;;;;;;16.03;100.00;101149.66;5230425;28;20108;-88
2021/07/04 02:27:26;;;;;;;153.82;36.13;;;;;;;16.03;100.00;101155.06;5229451;28;20025;-87
2021/07/04 02:29:57;;;;;;;141.43;38.65;;;;;;;16.04;100.00;101153.19;5242759;28;20115;-86
2021/07/04 02:32:27;;;;;;;75.75;28.52;;;;;;;16.04;100.00;101156.75;5241599;28;20027;-88
2021/07/04 02:34:58;;;;;;;145.50;34.28;;;;;;;16.02;100.00;101153.41;5231122;28;20025;-88
2021/07/04 02:37:28;;;;;;;111.45;35.55;;;;;;;16.02;100.00;101153.41;5228860;28;20012;-87
2021/07/04 02:39:59;;;;;;;145.82;36.38;;;;;;;16.03;100.00;101152.38;5220817;28;20021;-87
2021/07/04 02:42:29;;;;;;;209.80;40.95;;;;;;;16.04;100.00;101155.91;5227219;28;20042;-87
2021/07/04 02:45:00;;;;;;;148.55;42.65;;;;;;;16.03;100.00;101159.66;5244256;28;20032;-86
2021/07/04 02:47:31;;;;;;;142.00;38.90;;;;;;;16.07;100.00;101160.13;5246743;28;20035;-87
2021/07/04 02:50:05;;;;;;;152.60;40.15;;;;;;;16.04;100.00;101151.34;5246470;28;20093;-87
2021/07/04 02:52:36;;;;;;;146.32;39.33;;;;;;;16.07;100.00;101152.00;5246788;28;20107;-86
2021/07/04 02:55:08;;;;;;;171.65;37.03;;;;;;;16.11;100.00;101153.25;5234097;28;20051;-87
2021/07/04 02:57:38;;;;;;;192.13;41.85;;;;;;;16.07;100.00;101160.94;5226249;28;20472;-88
2021/07/04 03:00:12;;;;;;;257.17;46.92;;;;;;;16.08;100.00;101159.06;5228492;28;20017;-88
2021/07/04 03:02:43;;;;;;;170.35;44.30;;;;;;;16.06;100.00;101156.53;5238526;28;20101;-88
2021/07/04 03:05:14;;;;;;;148.02;41.40;;;;;;;16.07;100.00;101155.53;5233461;28;20048;-86
2021/07/04 03:07:45;;;;;;;224.15;45.00;;;;;;;16.08;100.00;101150.94;5233156;28;20033;-87
2021/07/04 03:10:19;;;;;;;195.70;47.15;;;;;;;16.08;100.00;101162.63;5238250;28;20060;-86
2021/07/04 03:12:50;;;;;;;191.63;44.63;;;;;;;16.10;100.00;101152.41;5239000;28;20025;-86
2021/07/04 03:15:21;;;;;;;280.80;50.47;;;;;;;16.08;100.00;101151.78;5236017;28;20035;-87
2021/07/04 03:17:51;;;;;;;253.77;52.38;;;;;;;16.04;100.00;101145.91;5232966;28;20096;-87
2021/07/04 03:20:22;;;;;;;211.32;50.67;;;;;;;16.08;100.00;101146.38;5245993;28;20028;-86
2021/07/04 03:22:52;;;;;;;300.60;61.03;;;;;;;16.10;100.00;101148.88;5240953;28;20476;-86
2021/07/04 03:25:23;;;;;;;223.95;48.17;;;;;;;16.13;100.00;101141.22;5238211;28;20033;-88
2021/07/04 03:27:54;;;;;;;255.10;56.10;;;;;;;16.11;100.00;101137.84;5245112;28;20364;-87
2021/07/04 03:30:25;;;;;;;255.93;52.20;;;;;;;16.10;100.00;101133.47;5231652;28;20210;-86
2021/07/04 03:32:55;;;;;;;183.63;50.63;;;;;;;16.11;100.00;101126.19;5229662;28;20009;-87
2021/07/04 03:35:26;;;;;;;285.55;58.45;;;;;;;16.11;100.00;101128.91;5240868;28;20027;-88
2021/07/04 03:37:56;;;;;;;259.70;57.13;;;;;;;16.11;100.00;101121.59;5245715;28;20056;-87
2021/07/04 03:40:27;;;;;;;270.02;58.50;;;;;;;16.11;100.00;101118.91;5232244;28;20028;-87
2021/07/04 03:42:58;;;;;;;232.45;59.88;;;;;;;16.14;100.00;101118.53;5235596;28;20032;-87
2021/07/04 03:45:29;;;;;;;209.52;56.22;;;;;;;16.16;100.00;101129.16;5238830;28;20025;-86
2021/07/04 03:48:00;;;;;;;211.60;56.97;;;;;;;16.15;100.00;101120.19;5236723;28;20074;-88
2021/07/04 03:50:30;;;;;;;265.77;55.15;;;;;;;16.18;100.00;101118.97;5231845;28;20020;-87
2021/07/04 03:53:02;;;;;;;222.60;59.17;;;;;;;16.19;100.00;101126.06;5245449;28;20077;-86
2021/07/04 03:55:33;;;;;;;334.98;62.75;;;;;;;16.19;100.00;101134.19;5235973;28;20126;-87
2021/07/04 03:58:04;;;;;;;363.05;61.90;;;;;;;16.18;100.00;101125.22;5232456;28;20577;-88
2021/07/04 04:00:36;;;;;;;285.35;61.03;;;;;;;16.21;100.00;101130.22;5244848;28;20052;-86
2021/07/04 04:03:06;;;;;;;328.55;61.08;;;;;;;16.22;100.00;101121.09;5243025;28;20434;-87
2021/07/04 04:05:37;;;;;;;413.33;67.43;;;;;;;16.23;100.00;101130.88;5234821;28;20021;-86
2021/07/04 04:08:07;;;;;;;287.17;62.03;;;;;;;16.29;100.00;101134.66;5228541;28;20025;-86
2021/07/04 04:10:38;;;;;;;276.52;58.63;;;;;;;16.33;100.00;101132.41;5235354;28;20024;-87
2021/07/04 04:13:08;;;;;;;218.65;55.47;;;;;;;16.37;100.00;101139.13;5231515;28;20032;-87
2021/07/04 04:15:39;;;;;;;279.95;58.58;;;;;;;16.43;100.00;101144.56;5234172;28;20029;-86
2021/07/04 04:18:10;;;;;;;233.88;60.15;;;;;;;16.52;100.00;101145.25;5243414;28;20028;-86
2021/07/04 04:20:40;;;;;;;225.75;56.42;;;;;;;16.47;100.00;101139.59;5232215;28;20033;-88
2021/07/04 04:23:11;;;;;;;218.75;53.45;;;;;;;16.56;100.00;101149.22;5244165;28;20020;-86
2021/07/04 04:25:41;;;;;;;216.45;54.03;;;;;;;16.62;100.00;101140.34;5243899;28;20017;-86
2021/07/04 04:28:12;;;;;;;206.02;55.95;;;;;;;16.64;100.00;101151.78;5232640;28;20540;-88
2021/07/04 04:30:42;;;;;;;178.63;50.08;;;;;;;16.70;100.00;101155.56;5231541;28;20024;-88
2021/07/04 04:33:13;;;;;;;218.40;54.58;;;;;;;16.71;100.00;101151.81;5241781;28;20475;-86
2021/07/04 04:35:43;;;;;;;181.38;51.58;;;;;;;16.74;100.00;101152.31;5245646;28;20476;-87
2021/07/04 04:38:14;;;;;;;165.52;49.88;;;;;;;16.81;100.00;101147.75;5233934;28;20070;-87
2021/07/04 04:40:45;;;;;;;183.15;49.17;;;;;;;16.89;100.00;101148.63;5228753;28;20025;-88
2021/07/04 04:43:15;;;;;;;158.77;47.47;;;;;;;16.90;100.00;101144.88;5244884;28;20063;-87
2021/07/04 04:45:46;;;;;;;148.05;48.45;;;;;;;16.95;100.00;101145.13;5238896;28;20086;-87
2021/07/04 04:48:16;;;;;;;148.40;47.65;;;;;;;16.97;100.00;101151.19;5236867;28;20368;-86
2021/07/04 04:50:47;;;;;;;136.65;44.28;;;;;;;16.93;100.00;101150.75;5244059;28;20020;-85
2021/07/04 04:53:17;;;;;;;131.15;44.40;;;;;;;16.89;100.00;101151.34;5230439;28;20021;-87
2021/07/04 04:55:48;;;;;;;130.25;45.83;;;;;;;16.92;100.00;101145.50;5234184;28;20021;-88
2021/07/04 04:58:18;;;;;;;127.50;45.40;;;;;;;16.92;100.00;101143.66;5230565;28;20115;-88
2021/07/04 05:00:49;;;;;;;115.82;42.92;;;;;;;16.95;100.00;101148.66;5236016;28;20024;-88
2021/07/04 05:03:19;;;;;;;122.85;44.03;;;;;;;16.97;100.00;101143.91;5230567;28;20116;-87
2021/07/04 05:05:50;;;;;;;120.35;44.65;;;;;;;16.97;100.00;101143.91;5244328;28;20081;-87
2021/07/04 05:08:20;;;;;;;111.40;41.63;;;;;;;17.01;100.00;101152.44;5229762;28;20499;-87
2021/07/04 05:10:52;;;;;;;106.50;41.28;;;;;;;17.03;100.00;101150.38;5231567;28;20112;-87
2021/07/04 05:13:23;;;;;;;104.75;42.20;;;;;;;17.17;100.00;101143.97;5236621;28;20021;-88
2021/07/04 05:15:53;;;;;;;98.05;39.45;;;;;;;17.21;100.00;101142.50;5236664;28;20094;-88
2021/07/04 05:18:24;;;;;;;94.47;37.30;;;;;;;17.28;100.00;101137.97;5231243;28;20025;-87
2021/07/04 05:20:54;;;;;;;95.68;39.25;;;;;;;17.28;100.00;101137.97;5230228;28;20052;-87
2021/07/04 05:23:25;;;;;;;98.78;40.38;;;;;;;17.23;100.00;101132.31;5243780;28;20081;-86
2021/07/04 05:25:58;;;;;;;96.75;40.63;;;;;;;17.20;100.00;101135.44;5240915;28;20032;-88
2021/07/04 05:28:28;;;;;;;95.95;40.60;;;;;;;17.26;100.00;101134.59;5233362;28;20038;-87
2021/07/04 05:30:59;;;;;;;93.47;39.38;;;;;;;17.28;100.00;101132.53;5230154;28;20145;-86
2021/07/04 05:33:29;;;;;;;92.15;38.40;;;;;;;17.32;100.00;101120.25;5240420;28;20098;-86
2021/07/04 05:36:00;;;;;;;86.68;36.20;;;;;;;17.53;100.00;101113.00;5229980;28;20486;-89
2021/07/04 05:38:33;;;;;;;73.50;33.90;;;;;;;17.57;100.00;101103.41;5243204;28;20028;-87
2021/07/04 05:41:04;;;;;;;74.15;34.58;;;;;;;17.54;100.00;101098.41;5229796;28;20032;-87
2021/07/04 05:43:36;;;;;;;84.70;35.70;;;;;;;17.60;100.00;101097.56;5243262;28;20032;-86
2021/07/04 05:46:10;;;;;;;72.80;32.75;;;;;;;18.14;100.00;101098.47;5237973;28;20112;-86
2021/07/04 05:48:42;;;;;;;70.10;33.97;;;;;;;18.73;100.00;101108.44;5241697;28;20710;-87
2021/07/04 05:51:13;;;;;;;60.45;30.13;;;;;;;19.94;100.00;101096.72;5242128;28;20526;-86
2021/07/04 05:53:44;;;;;;;52.20;28.17;;;;;;;20.80;100.00;101088.53;5240977;28;20476;-87
2021/07/04 05:56:14;;;;;;;50.20;28.92;;;;;;;20.76;100.00;101095.50;5233516;28;20028;-87
2021/07/04 05:58:45;;;;;;;48.67;27.35;;;;;;;20.40;100.00;101094.38;5228146;28;20028;-87
2021/07/04 06:01:16;;;;;;;49.53;27.33;;;;;;;19.91;100.00;101098.78;5228021;28;20111;-87
2021/07/04 06:03:46;;;;;;;47.55;26.38;;;;;;;19.62;100.00;101097.53;5221407;28;20115;-88
2021/07/04 06:06:17;;;;;;;50.50;28.45;;;;;;;19.44;100.00;101093.88;5222980;28;20032;-88
2021/07/04 06:08:47;;;;;;;49.80;28.40;;;;;;;19.54;100.00;101086.91;5232666;28;20095;-86
2021/07/04 06:11:18;;;;;;;43.72;23.52;;;;;;;20.04;100.00;101078.81;5224638;28;20023;-86
2021/07/04 06:13:48;;;;;;;45.92;25.67;;;;;;;20.44;100.00;101072.97;5241900;28;20035;-89
2021/07/04 06:16:19;;;;;;;42.78;21.92;;;;;;;20.63;100.00;101063.78;5228138;28;20035;-87
2021/07/04 06:18:49;;;;;;;39.38;20.55;;;;;;;20.71;100.00;101067.25;5219888;28;20021;-86
2021/07/04 06:21:20;;;;;;;42.30;23.35;;;;;;;20.79;100.00;101061.50;5221307;28;20058;-86
2021/07/04 06:23:50;;;;;;;39.38;21.02;;;;;;;21.13;100.00;101071.72;5216322;28;20387;-87
2021/07/04 06:26:21;;;;;;;29.15;18.33;;;;;;;21.56;100.00;101065.28;5241717;28;20166;-87
2021/07/04 06:28:51;;;;;;;35.03;19.33;;;;;;;21.46;100.00;101065.84;5224055;28;20602;-87
2021/07/04 06:31:24;;;;;;;31.25;18.80;;;;;;;21.58;100.00;101063.13;5242048;28;20020;-86
2021/07/04 06:33:57;;;;;;;32.85;21.02;;;;;;;21.33;100.00;101071.47;5229479;28;20108;-86
2021/07/04 06:36:28;;;;;;;30.48;19.30;;;;;;;21.43;100.00;101065.47;5231633;28;20480;-86
2021/07/04 06:38:58;;;;;;;32.67;21.00;;;;;;;21.71;100.00;101070.28;5241032;28;20032;-87
2021/07/04 06:41:29;;;;;;;46.60;21.42;;;;;;;22.26;100.00;101067.28;5242159;28;20016;-88
2021/07/04 06:44:00;;;;;;;28.60;18.45;;;;;;;23.20;100.00;101064.38;5241578;28;20024;-88
2021/07/04 06:46:31;;;;;;;26.27;17.90;;;;;;;23.36;100.00;101052.63;5241751;28;20073;-87
2021/07/04 06:49:02;;;;;;;25.45;16.23;;;;;;;23.90;100.00;101052.19;5241066;28;20032;-88
2021/07/04 06:51:33;;;;;;;25.17;16.40;;;;;;;23.57;100.00;101051.06;5241752;28;20480;-87
2021/07/04 06:54:04;;;;;;;26.48;16.92;;;;;;;23.18;100.00;101041.88;5241689;28;20025;-88
2021/07/04 06:56:34;;;;;;;26.00;17.50;;;;;;;22.78;100.00;101048.16;5228711;28;20032;-86
2021/07/04 06:59:05;;;;;;;27.98;17.73;;;;;;;22.75;100.00;101056.88;5236505;28;20029;-88
2021/07/04 07:01:35;;;;;;;27.90;17.48;;;;;;;22.67;100.00;101054.50;5223901;28;20024;-89
2021/07/04 07:04:06;;;;;;;26.30;17.63;;;;;;;22.69;100.00;101049.63;5241005;28;20033;-87
2021/07/04 07:06:36;;;;;;;24.27;16.85;;;;;;;22.63;100.00;101050.59;5223887;28;20025;-86
2021/07/04 07:09:07;;;;;;;22.08;16.92;;;;;;;22.92;100.00;101052.31;5231949;28;20036;-87
2021/07/04 07:11:37;;;;;;;25.65;16.77;;;;;;;23.04;100.00;101048.72;5236195;28;20116;-87
2021/07/04 07:14:08;;;;;;;24.42;16.55;;;;;;;22.89;100.00;101046.50;5233735;28;20017;-87
2021/07/04 07:16:38;;;;;;;27.48;16.65;;;;;;;23.20;100.00;101035.09;5227738;28;20028;-87
2021/07/04 07:19:09;;;;;;;23.33;14.05;;;;;;;23.48;100.00;101038.84;5227964;28;20033;-86
2021/07/04 07:21:41;;;;;;;17.77;12.80;;;;;;;24.03;100.00;101040.88;5234294;28;20025;-86
2021/07/04 07:24:12;;;;;;;22.17;12.57;;;;;;;24.14;100.00;101042.69;5234177;28;20021;-86
2021/07/04 07:26:42;;;;;;;19.67;13.18;;;;;;;23.87;100.00;101042.56;5229674;28;20024;-86
2021/07/04 07:29:13;;;;;;;20.67;14.07;;;;;;;23.80;100.00;101039.16;5227463;28;20032;-86
2021/07/04 07:31:44;;;;;;;19.90;13.63;;;;;;;23.41;100.00;101052.72;5233617;28;20025;-86
2021/07/04 07:34:15;;;;;;;19.13;12.25;;;;;;;23.66;100.00;101052.34;5231456;28;20028;-86
2021/07/04 07:36:45;;;;;;;16.02;11.25;;;;;;;23.48;100.00;101047.91;5233320;28;20033;-86
2021/07/04 07:39:16;;;;;;;16.48;10.32;;;;;;;23.68;100.00;101044.72;5243031;28;20166;-86
2021/07/04 07:41:46;;;;;;;18.40;10.73;;;;;;;23.35;100.00;101053.69;5232484;28;20420;-86
2021/07/04 07:44:18;;;;;;;11.80;8.07;;;;;;;23.48;100.00;101050.63;5237827;28;20024;-87
2021/07/04 07:46:49;;;;;;;13.32;7.45;;;;;;;23.66;100.00;101051.53;5237314;28;20074;-88
2021/07/04 07:49:19;;;;;;;19.77;11.10;;;;;;;23.58;100.00;101039.03;5232323;28;20039;-86
2021/07/04 07:51:50;;;;;;;17.25;10.52;;;;;;;23.71;100.00;101036.00;5233945;28;20408;-86
2021/07/04 07:54:21;;;;;;;17.27;11.48;;;;;;;23.87;100.00;101030.78;5226913;28;20074;-87
2021/07/04 07:56:52;;;;;;;22.63;13.85;;;;;;;23.51;100.00;101028.25;5227039;28;20044;-86
2021/07/04 07:59:23;;;;;;;20.73;15.07;;;;;;;23.35;100.00;101020.03;5232851;28;20020;-86
2021/07/04 08:01:53;;;;;;;21.13;12.40;;;;;;;23.76;100.00;101022.41;5242546;28;20020;-85
2021/07/04 08:04:25;;;;;;;18.48;13.43;;;;;;;23.43;100.00;101020.44;5231262;28;20029;-85
2021/07/04 08:06:55;;;;;;;20.10;12.70;;;;;;;23.62;100.00;101018.28;5230461;28;20025;-85
2021/07/04 08:09:26;;;;;;;16.38;12.88;;;;;;;23.24;100.00;101017.09;5244659;28;20115;-85
2021/07/04 08:11:56;;;;;;;16.58;11.63;;;;;;;23.19;100.00;101018.91;5236258;28;20108;-86
2021/07/04 08:14:28;;;;;;;21.00;13.07;;;;;;;23.04;100.00;101011.22;5237128;28;20025;-86
2021/07/04 08:16:58;;;;;;;18.75;13.85;;;;;;;22.90;100.00;101005.25;5232831;28;20384;-86
2021/07/04 08:19:29;;;;;;;25.10;13.57;;;;;;;22.71;100.00;101014.66;5230186;28;20024;-86
2021/07/04 08:22:00;;;;;;;23.38;15.65;;;;;;;22.14;100.00;101006.31;5244207;28;20021;-86
2021/07/04 08:24:31;;;;;;;27.25;14.73;;;;;;;22.64;100.00;101000.28;5239276;28;20017;-86
2021/07/04 08:27:02;;;;;;;22.48;15.50;;;;;;;22.79;100.00;101005.25;5235297;28;20028;-86
2021/07/04 08:29:32;;;;;;;25.95;15.73;;;;;;;22.21;100.00;100999.69;5227361;28;20537;-87
2021/07/04 08:32:03;;;;;;;24.70;15.93;;;;;;;22.20;100.00;100992.56;5229698;28;20024;-86
2021/07/04 08:34:33;;;;;;;24.02;16.20;;;;;;;22.66;100.00;100995.44;5243971;28;20515;-87
2021/07/04 08:37:04;;;;;;;23.75;16.35;;;;;;;22.76;100.00;100992.91;5242530;28;20024;-86
2021/07/04 08:39:34;;;;;;;20.15;14.20;;;;;;;22.94;100.00;100990.00;5222714;28;20082;-87
2021/07/04 08:42:05;;;;;;;22.98;15.88;;;;;;;22.79;100.00;100986.91;5233768;28;20027;-87
2021/07/04 08:44:35;;;;;;;21.58;15.27;;;;;;;22.42;100.00;100987.28;5232699;28;20013;-86
2021/07/04 08:47:06;;;;;;;20.60;15.05;;;;;;;22.25;100.00;100989.13;5229545;28;20025;-87
2021/07/04 08:49:36;;;;;;;20.05;13.98;;;;;;;22.43;100.00;100993.56;5238024;28;20085;-87
2021/07/04 08:52:09;;;;;;;21.55;14.75;;;;;;;22.80;100.00;100988.59;5243021;28;20088;-87
2021/07/04 08:54:40;;;;;;;24.58;13.82;;;;;;;23.21;100.00;100989.41;5229912;28;20057;-87
2021/07/04 08:57:12;;;;;;;23.10;14.77;;;;;;;22.52;100.00;100994.88;5228266;28;20395;-87
2021/07/04 08:59:45;;;;;;;18.45;13.07;;;;;;;22.97;100.00;100991.41;5242731;28;20202;-86
2021/07/04 09:02:35;;;;;;;19.45;13.25;;;;;;;23.29;100.00;100988.97;5242839;28;20048;-87
2021/07/04 09:05:08;;;;;;;18.45;12.80;;;;;;;23.56;100.00;100985.59;5224291;28;20397;-87
2021/07/04 09:07:40;;;;;;;18.00;12.73;;;;;;;23.48;100.00;100984.09;5235490;28;20030;-87
2021/07/04 09:10:13;;;;;;;17.60;12.25;;;;;;;22.98;100.00;100969.28;5221856;28;20447;-87
2021/07/04 09:12:47;;;;;;;14.13;10.95;;;;;;;23.07;100.00;100966.16;5223428;28;20096;-87
2021/07/04 09:15:20;;;;;;;15.52;10.90;;;;;;;23.32;100.00;100965.75;5233352;28;20028;-87
2021/07/04 09:17:57;;;;;;;20.60;9.80;;;;;;;23.18;100.00;100967.97;5235414;28;20028;-87
2021/07/04 09:20:31;;;;;;;17.80;9.75;;;;;;;23.16;100.00;100961.94;5233498;28;20020;-88
2021/07/04 09:23:03;;;;;;;14.80;10.95;;;;;;;23.44;100.00;100964.59;5223358;28;20383;-87
2021/07/04 09:25:39;;;;;;;13.23;9.85;;;;;;;23.65;100.00;100963.06;5221583;28;20092;-87
2021/07/04 09:28:11;;;;;;;15.25;9.80;;;;;;;23.69;100.00;100963.38;5230575;28;20028;-87
2021/07/04 09:30:54;;;;;;;13.70;8.73;;;;;;;23.45;100.00;100968.19;5228671;28;20047;-88
2021/07/04 09:33:31;;;;;;;12.85;9.05;;;;;;;23.39;100.00;100967.25;5239131;28;20074;-87
2021/07/04 09:36:04;;;;;;;16.05;9.40;;;;;;;23.11;100.00;100956.38;5210633;28;20020;-87
2021/07/04 09:38:38;;;;;;;16.35;8.13;;;;;;;23.07;100.00;100953.28;5228969;28;20021;-87
2021/07/04 09:41:11;;;;;;;8.70;6.72;;;;;;;23.25;100.00;100952.25;5242321;28;20155;-86
2021/07/04 09:43:42;;;;;;;10.10;7.63;;;;;;;23.07;100.00;100947.00;5239874;28;20060;-87
2021/07/04 09:46:15;;;;;;;10.32;7.32;;;;;;;23.04;100.00;100940.09;5231338;28;20086;-85
2021/07/04 09:48:47;;;;;;;10.57;6.50;;;;;;;23.38;100.00;100942.88;5228840;28;20047;-86
2021/07/04 09:51:21;;;;;;;9.35;6.70;;;;;;;22.98;100.00;100939.19;5239294;28;20017;-85
2021/07/04 09:53:57;;;;;;;11.23;6.18;;;;;;;22.84;100.00;100946.03;5226134;28;20117;-85
2021/07/04 09:56:30;;;;;;;8.25;6.53;;;;;;;22.49;100.00;100941.53;5237757;28;20031;-85
2021/07/04 09:59:04;;;;;;;8.05;5.97;;;;;;;22.35;100.00;100931.94;5238460;28;20017;-85
2021/07/04 10:01:46;;;;;;;9.88;5.97;;;;;;;22.53;100.00;100928.19;5225353;28;20021;-85
2021/07/04 10:04:26;;;;;;;8.15;5.93;;;;;;;22.92;100.00;100923.75;5234615;28;20024;-85
2021/07/04 10:07:08;;;;;;;8.75;5.97;;;;;;;23.25;100.00;100922.97;5222607;28;20030;-86
2021/07/04 10:10:01;;;;;;;8.38;6.50;;;;;;;23.66;100.00;100915.41;5239565;28;20025;-86
2021/07/04 10:12:31;;;;;;;10.15;6.80;;;;;;;23.63;100.00;100912.31;5230556;28;20107;-85
2021/07/04 10:15:03;;;;;;;14.57;7.72;;;;;;;23.49;100.00;100912.69;5223230;28;20051;-86
2021/07/04 10:17:35;;;;;;;11.40;7.55;;;;;;;23.63;100.00;100910.44;5222411;28;20029;-85
2021/07/04 10:20:06;;;;;;;11.57;6.70;;;;;;;23.64;100.00;100912.09;5216994;28;20056;-85
2021/07/04 10:22:37;;;;;;;13.27;8.30;;;;;;;23.45;100.00;100916.16;5224932;28;20455;-85
2021/07/04 10:25:08;;;;;;;13.27;8.15;;;;;;;23.62;100.00;100918.88;5242952;28;20115;-86
2021/07/04 10:27:39;;;;;;;13.90;8.82;;;;;;;23.46;100.00;100915.91;5242227;28;20028;-85
2021/07/04 10:30:10;;;;;;;17.70;8.68;;;;;;;23.65;100.00;100924.72;5241811;28;20046;-85
2021/07/04 10:33:06;;;;;;;14.45;9.05;;;;;;;23.06;100.00;100916.06;5241424;28;20111;-86
2021/07/04 10:35:59;;;;;;;19.15;10.38;;;;;;;23.59;100.00;100917.47;5236748;28;20021;-86
2021/07/04 10:38:43;;;;;;;22.73;14.10;;;;;;;23.98;100.00;100925.72;5227332;28;20037;-86
2021/07/04 10:41:26;;;;;;;18.88;12.07;;;;;;;24.08;100.00;100923.13;5232157;28;20036;-85
2021/07/04 10:43:56;;;;;;;19.13;10.65;;;;;;;23.68;100.00;100910.50;5238812;28;20033;-84
2021/07/04 10:46:49;;;;;;;19.17;10.02;;;;;;;23.75;100.00;100902.97;5224319;28;20029;-85
2021/07/04 10:49:23;;;;;;;22.38;12.50;;;;;;;23.70;100.00;100908.38;5232239;28;20115;-85
2021/07/04 10:52:17;;;;;;;19.80;12.63;;;;;;;23.30;100.00;100905.81;5235145;28;20090;-85
2021/07/04 10:54:51;;;;;;;21.70;12.45;;;;;;;23.49;100.00;100898.13;5232323;28;20083;-85
2021/07/04 10:57:33;;;;;;;23.30;14.53;;;;;;;23.18;100.00;100894.91;5230470;28;20059;-84
2021/07/04 11:00:07;;;;;;;17.48;12.48;;;;;;;22.97;100.00;100893.75;5243217;28;20594;-84
2021/07/04 11:02:46;;;;;;;23.23;13.52;;;;;;;22.98;100.00;100900.03;5243291;28;20098;-85
2021/07/04 11:05:39;;;;;;;23.17;12.20;;;;;;;22.14;100.00;100941.63;5220726;28;20060;-85
2021/07/04 11:08:11;;;;;;;7.90;2.70;;;;;;;20.03;100.00;100911.03;5225275;28;20051;-85
2021/07/04 11:11:06;;;;;;;7.72;2.70;;;;;;;18.63;100.00;100965.66;5239328;28;20033;-86
2021/07/04 11:13:43;;;;;;;7.40;2.13;;;;;;;17.02;100.00;100935.44;5238076;28;20032;-85
2021/07/04 11:16:23;;;;;;;12.27;1.48;;;;;;;16.08;100.00;100937.16;5246278;28;20040;-84
2021/07/04 11:19:04;;;;;;;10.07;1.25;;;;;;;15.38;100.00;100934.38;5234786;28;20032;-85
2021/07/04 11:21:50;;;;;;;5.13;0.85;;;;;;;14.87;100.00;100952.59;5246088;28;20024;-85
2021/07/04 11:24:23;;;;;;;3.53;0.80;;;;;;;14.64;100.00;100977.88;5244808;28;20023;-84